Flight Track Log - Related Links

Times and Time Zones

All times are in EDT time to prevent confusion due to time zone crossing. See the N173AA flight status page for this flight to view local times or setup timezone preferences in your user account.

Time Position Orientation Groundspeed Altitude Reporting Facility
EDT Latitude Longitude Course Direction KTS MPH feet Rate Location/Type
Sun 05:31:34 PM 26.0783 -80.0719 86° East 202 232 2,400  Level Miami Center
Sun 05:32:34 PM 26.0672 -80.0069 101° East 222 255 3,600 944 Climbing Miami Center
Sun 05:33:22 PM 26.0600 -79.9558 99° East 252 290 4,100 556 Climbing Miami Center
Sun 05:34:22 PM 26.0408 -79.8744 105° East 273 314 4,600 800 Climbing Miami Center
Sun 05:35:22 PM 26.0281 -79.7908 100° East 279 321 5,700 1,210 Climbing Miami Center
Sun 05:36:21 PM 26.0150 -79.7075 100° East 279 321 7,000 1,250 Climbing Miami Center
Sun 05:37:22 PM 26.0039 -79.6261 99° East 279 321 8,200 1,250 Climbing Miami Center
Sun 05:38:21 PM 25.9614 -79.5628 127° Southeast 269 310 9,500 1,150 Climbing Miami Center
Sun 05:39:22 PM 25.8819 -79.5633 180° South 217 250 10,500 1,100 Climbing Miami Center
Sun 05:40:21 PM 25.8064 -79.5778 190° South 240 276 11,700 1,400 Climbing Miami Center
Sun 05:41:22 PM 25.7311 -79.5900 188° South 260 299 13,300 10,650 Climbing Miami Center
Sun 05:42:21 PM 25.6619 -79.6000 187° South 266 306 33,000 1,650 Climbing Miami Center
Sun 05:43:22 PM 25.5947 -79.6144 191° South 255 293 16,600 -7,300 Descending Miami Center
Sun 05:44:21 PM 25.5439 -79.6478 211° Southwest 233 268 18,400 1,650 Climbing Miami Center
Sun 05:45:22 PM 25.4850 -79.6694 198° South 222 255 19,900 1,140 Climbing Miami Center
Sun 05:46:22 PM 25.4161 -79.6725 182° South 229 264 20,700 850 Climbing Miami Center
Sun 05:47:22 PM 25.3386 -79.6753 182° South 260 299 21,600 850 Climbing Miami Center
Sun 05:48:22 PM 25.2550 -79.6781 182° South 281 323 22,400 850 Climbing Miami Center
Sun 05:49:22 PM 25.1736 -79.6808 182° South 299 344 23,300 850 Climbing Miami Center
Sun 05:50:22 PM 25.0900 -79.6789 179° South 299 344 24,100 1,050 Climbing Miami Center
Sun 05:51:22 PM 25.0086 -79.6769 179° South 299 344 25,400 1,300 Climbing Miami Center
Sun 05:52:22 PM 24.9378 -79.6617 169° South 283 326 26,700 1,050 Climbing Miami Center
Sun 05:53:22 PM 24.8653 -79.6369 163° South 277 319 27,500 800 Climbing Miami Center
Sun 05:54:22 PM 24.7967 -79.6103 161° South 272 313 28,300 700 Climbing Miami Center
Sun 05:55:22 PM 24.7219 -79.5881 165° South 272 313 28,900 550 Climbing Miami Center
Sun 05:56:22 PM 24.6450 -79.5681 167° South 277 319 29,400 550 Climbing Miami Center
Sun 05:57:22 PM 24.5658 -79.5458 166° South 287 330 30,000 655 Climbing Miami Center
Sun 05:58:21 PM 24.4850 -79.5236 166° South 292 336 30,700 500 Climbing Miami Center
Sun 05:59:22 PM 24.4017 -79.4989 165° South 304 350 31,000 149 Climbing Miami Center
Sun 06:00:22 PM 24.3122 -79.4742 166° South 318 366 31,000  Level Miami Center
Sun 06:01:22 PM 24.2186 -79.4494 166° South 332 382 31,000  Level Miami Center
Sun 06:02:21 PM 24.1231 -79.4225 166° South 346 398 31,000  Level Miami Center
Sun 06:03:22 PM 24.0275 -79.3911 163° South 360 414 31,000  Level Miami Center
Sun 06:04:22 PM 23.9233 -79.3683 169° South 365 420 31,000  Level Miami Center
Sun 06:06:00 PM 23.7580 -79.3543 176° South  Level FlightAware Approximate
Sun 06:13:00 PM 23.0474 -79.2860 169° South  Level FlightAware Approximate
Sun 06:14:00 PM 22.9476 -79.2660 169° South  Level FlightAware Approximate
Sun 06:15:00 PM 22.8478 -79.2459 170° South  Level FlightAware Approximate
Sun 06:16:00 PM 22.7479 -79.2259 170° South  Level FlightAware Approximate
Sun 06:17:00 PM 22.6481 -79.2059 170° South  Level FlightAware Approximate
Sun 06:18:00 PM 22.5483 -79.1859 170° South  Level FlightAware Approximate
Sun 06:19:00 PM 22.4485 -79.1659 170° South  Level FlightAware Approximate
Sun 06:20:00 PM 22.3486 -79.1460 170° South  Level FlightAware Approximate
Sun 06:21:00 PM 22.2488 -79.1261 170° South  Level FlightAware Approximate
Sun 06:22:00 PM 22.1490 -79.1063 170° South  Level FlightAware Approximate
Sun 06:23:00 PM 22.0491 -79.0864 170° South  Level FlightAware Approximate
Sun 06:24:00 PM 21.9493 -79.0666 170° South  Level FlightAware Approximate
Sun 06:25:00 PM 21.8494 -79.0468 170° South  Level FlightAware Approximate
Sun 06:26:00 PM 21.7496 -79.0271 170° South  Level FlightAware Approximate
Sun 06:27:00 PM 21.6497 -79.0074 170° South  Level FlightAware Approximate
Sun 06:28:00 PM 21.5499 -78.9877 170° South  Level FlightAware Approximate
Sun 06:29:00 PM 21.4501 -78.9680 170° South  Level FlightAware Approximate
Sun 06:30:00 PM 21.3502 -78.9484 170° South  Level FlightAware Approximate
Sun 06:31:00 PM 21.2503 -78.9288 170° South  Level FlightAware Approximate
Sun 06:32:00 PM 21.1505 -78.9092 170° South  Level FlightAware Approximate
Sun 06:33:00 PM 21.0506 -78.8896 170° South  Level FlightAware Approximate
Sun 06:34:00 PM 20.9508 -78.8701 170° South  Level FlightAware Approximate
Sun 06:35:00 PM 20.8498 -78.8731 184° South  Level FlightAware Approximate
Sun 06:36:00 PM 20.7485 -78.8809 184° South  Level FlightAware Approximate
Sun 06:37:00 PM 20.6473 -78.8887 184° South  Level FlightAware Approximate
Sun 06:38:00 PM 20.5460 -78.8965 184° South  Level FlightAware Approximate
Sun 06:39:00 PM 20.4448 -78.9043 184° South  Level FlightAware Approximate
Sun 06:40:00 PM 20.3435 -78.9121 184° South  Level FlightAware Approximate
Sun 06:41:00 PM 20.2421 -78.9167 180° South  Level FlightAware Approximate
Sun 06:42:00 PM 20.1406 -78.9167 180° South  Level FlightAware Approximate
Sun 06:43:00 PM 20.0396 -78.9201 197° South  Level FlightAware Approximate
Sun 06:44:00 PM 19.9519 -78.8957 148° Southeast  Level FlightAware Approximate
Sun 06:45:00 PM 19.8659 -78.8383 148° Southeast  Level FlightAware Approximate
Sun 06:46:00 PM 19.7799 -78.7810 148° Southeast  Level FlightAware Approximate
Sun 06:47:00 PM 19.6943 -78.7229 147° Southeast  Level FlightAware Approximate
Sun 06:48:00 PM 19.6093 -78.6640 147° Southeast  Level FlightAware Approximate
Sun 06:49:00 PM 19.5242 -78.6052 147° Southeast  Level FlightAware Approximate
Sun 06:50:00 PM 19.4384 -78.5477 148° Southeast  Level FlightAware Approximate
Sun 06:51:00 PM 19.3525 -78.4904 148° Southeast  Level FlightAware Approximate
Sun 06:52:00 PM 19.2666 -78.4331 148° Southeast  Level FlightAware Approximate
Sun 06:53:00 PM 19.1806 -78.3759 148° Southeast  Level FlightAware Approximate
Sun 06:54:00 PM 19.0947 -78.3187 148° Southeast  Level FlightAware Approximate
Sun 06:55:00 PM 19.0087 -78.2616 149° Southeast  Level FlightAware Approximate
Sun 06:56:00 PM 18.9217 -78.2062 149° Southeast  Level FlightAware Approximate
Sun 06:57:00 PM 18.8348 -78.1509 149° Southeast  Level FlightAware Approximate
Sun 06:58:00 PM 18.7519 -78.0889 145° Southeast  Level FlightAware Approximate
Sun 06:59:00 PM 18.6680 -78.0346 137° Southeast  Level FlightAware Approximate
Sun 07:00:00 PM 18.5830 -77.9799 159° South  Level FlightAware Approximate
Sun 07:01:00 PM 18.5020 -77.9186 137° Southeast  Level FlightAware Approximate
Sun 07:02:00 PM 18.5037 -77.9134 90° East  Level Estimated
Sun 07:03:00 PM 18.5037 -77.9134 90° East  Level Estimated
Sun 07:04:00 PM 18.5037 -77.9134 90° East  Level Estimated
Sun 07:05:00 PM 18.5037 -77.9134 90° East  Level Estimated
Sun 07:06:00 PM 18.5037 -77.9134 90° East  Level Estimated
Sun 07:07:00 PM 18.5037 -77.9134 90° East  Level Estimated
Sun 07:08:00 PM 18.5037 -77.9134 90° East  Level Estimated
Sun 07:09:00 PM 18.5037 -77.9134 90° East  Level Estimated
Sun 07:10:00 PM 18.5037 -77.9134 90° East  Level Estimated
Sun 07:11:00 PM 18.5037 -77.9134 90° East  Level Estimated
Sun 07:12:00 PM 18.5037 -77.9134 90° East  Level Estimated
Sun 07:13:00 PM 18.5037 -77.9134 90° East  Level Estimated
Sun 07:14:00 PM 18.5037 -77.9134 90° East  Level Estimated
Sun 07:15:00 PM 18.5037 -77.9134 90° East  Level Estimated
Sun 07:16:00 PM 18.5037 -77.9134 90° East  Level Estimated
Sun 07:17:00 PM 18.5037 -77.9134 90° East  Level Estimated
Sun 07:18:00 PM 18.5037 -77.9134 90° East  Level Estimated
Sun 07:19:00 PM 18.5037 -77.9134 90° East  Level Estimated
Sun 07:20:00 PM 18.5037 -77.9134 90° East  Level Estimated

Login

Don't have an account? Register now (free) for customized features, flight alerts, and more!